createdAt,value
2023-02-06T00:01:33.225Z,6.78
2023-02-06T00:04:01.601Z,6.63
2023-02-06T00:06:28.318Z,4.90
2023-02-06T00:08:54.787Z,5.47
2023-02-06T00:11:21.378Z,3.85
2023-02-06T00:13:48.740Z,6.53
2023-02-06T00:16:16.710Z,3.97
2023-02-06T00:18:43.210Z,5.03
2023-02-06T00:21:11.291Z,4.13
2023-02-06T00:23:37.886Z,5.43
2023-02-06T00:26:04.696Z,3.92
2023-02-06T00:28:31.210Z,5.10
2023-02-06T00:30:57.826Z,4.28
2023-02-06T00:33:24.442Z,5.40
2023-02-06T00:35:51.111Z,7.40
2023-02-06T00:38:18.977Z,6.95
2023-02-06T00:40:45.452Z,4.60
2023-02-06T00:43:11.961Z,6.05
2023-02-06T00:45:38.489Z,4.63
2023-02-06T00:48:05.219Z,5.85
2023-02-06T00:50:31.736Z,5.47
2023-02-06T00:52:58.233Z,5.25
2023-02-06T00:55:26.091Z,5.72
2023-02-06T00:57:52.814Z,5.10
2023-02-06T01:00:19.807Z,6.20
2023-02-06T01:02:46.387Z,5.68
2023-02-06T01:05:12.955Z,7.00
2023-02-06T01:07:40.201Z,3.83
2023-02-06T01:10:08.913Z,6.40
2023-02-06T01:12:37.252Z,5.53
2023-02-06T01:15:04.268Z,4.18
2023-02-06T01:17:31.850Z,7.90
2023-02-06T01:19:58.430Z,3.70
2023-02-06T01:22:24.976Z,5.38
2023-02-06T01:24:51.567Z,6.22
2023-02-06T01:27:18.090Z,6.60
2023-02-06T01:29:46.067Z,6.93
2023-02-06T01:32:12.546Z,5.60
2023-02-06T01:34:39.040Z,5.00
2023-02-06T01:37:05.524Z,5.65
2023-02-06T01:39:32.137Z,5.22
2023-02-06T01:41:58.922Z,4.18
2023-02-06T01:44:26.101Z,3.60
2023-02-06T01:46:56.092Z,3.85
2023-02-06T01:49:28.105Z,5.70
2023-02-06T01:51:58.905Z,7.47
2023-02-06T01:54:25.656Z,4.20
2023-02-06T01:56:56.423Z,5.00
2023-02-06T01:59:24.290Z,5.68
2023-02-06T02:01:51.054Z,6.00
2023-02-06T02:04:22.472Z,6.05
2023-02-06T02:06:57.453Z,3.92
2023-02-06T02:09:24.532Z,3.80
2023-02-06T02:11:51.270Z,5.28
2023-02-06T02:14:18.007Z,3.83
2023-02-06T02:16:55.909Z,3.35
2023-02-06T02:19:47.216Z,4.50
2023-02-06T02:22:37.096Z,5.75
2023-02-06T02:25:25.693Z,3.35
2023-02-06T02:28:11.457Z,4.75
2023-02-06T02:30:54.620Z,4.03
2023-02-06T02:33:37.054Z,5.55
2023-02-06T02:36:14.416Z,5.60
2023-02-06T02:38:53.751Z,4.03
2023-02-06T02:41:27.652Z,4.07
2023-02-06T02:46:31.502Z,2.90
2023-02-06T02:49:04.144Z,2.72
2023-02-06T02:51:33.483Z,4.07
2023-02-06T02:54:00.033Z,4.13
2023-02-06T02:56:29.086Z,4.72
2023-02-06T02:58:59.115Z,5.50
2023-02-06T03:01:29.847Z,4.80
2023-02-06T03:04:01.056Z,4.97
2023-02-06T03:06:43.236Z,4.63
2023-02-06T03:09:18.631Z,5.53
2023-02-06T03:11:50.627Z,2.85
2023-02-06T03:14:27.425Z,3.97
2023-02-06T03:17:00.106Z,5.32
2023-02-06T03:19:31.607Z,5.45
2023-02-06T03:22:00.803Z,4.75
2023-02-06T03:24:32.279Z,5.50
2023-02-06T03:27:03.688Z,3.83
2023-02-06T03:29:33.804Z,3.25
2023-02-06T03:32:05.361Z,5.55
2023-02-06T03:34:38.918Z,6.50
2023-02-06T03:37:07.054Z,4.07
2023-02-06T03:39:34.084Z,3.80
2023-02-06T03:42:02.573Z,4.00
2023-02-06T03:44:34.532Z,5.75
2023-02-06T03:47:03.095Z,5.28
2023-02-06T03:49:32.818Z,5.28
2023-02-06T03:52:03.143Z,5.95
2023-02-06T03:54:33.554Z,6.60
2023-02-06T03:57:01.989Z,4.50
2023-02-06T03:59:29.617Z,4.18
2023-02-06T04:01:58.421Z,6.80
2023-02-06T04:04:28.618Z,4.53
2023-02-06T04:06:55.826Z,3.67
2023-02-06T04:09:22.366Z,5.05
2023-02-06T04:11:50.197Z,3.72
2023-02-06T04:14:17.683Z,7.72
2023-02-06T04:16:44.378Z,4.32
2023-02-06T04:19:11.595Z,8.32
2023-02-06T04:21:38.222Z,5.85
2023-02-06T04:24:05.045Z,3.70
2023-02-06T04:26:31.536Z,5.75
2023-02-06T04:28:59.316Z,6.03
2023-02-06T04:31:25.970Z,5.22
2023-02-06T04:33:52.509Z,6.38
2023-02-06T04:36:19.040Z,6.38
2023-02-06T04:38:45.688Z,6.55
2023-02-06T04:41:12.204Z,4.57
2023-02-06T04:43:38.750Z,5.50
2023-02-06T04:46:06.588Z,2.67
2023-02-06T04:48:33.257Z,7.25
2023-02-06T04:50:59.789Z,3.67
2023-02-06T04:53:26.293Z,4.00
2023-02-06T04:55:52.837Z,4.18
2023-02-06T04:58:19.357Z,5.60
2023-02-06T05:00:45.836Z,5.93
2023-02-06T05:03:13.691Z,6.85
2023-02-06T05:05:40.184Z,5.63
2023-02-06T05:08:06.676Z,4.90
2023-02-06T05:10:33.295Z,5.70
2023-02-06T05:12:59.796Z,5.55
2023-02-06T05:15:26.387Z,5.35
2023-02-06T05:17:53.939Z,7.88
2023-02-06T05:20:22.116Z,3.55
2023-02-06T05:22:48.670Z,5.75
2023-02-06T05:25:15.289Z,4.03
2023-02-06T05:27:41.802Z,5.35
2023-02-06T05:30:09.206Z,4.63
2023-02-06T05:32:35.813Z,4.43
2023-02-06T05:35:02.361Z,7.75
2023-02-06T05:37:30.185Z,4.85
2023-02-06T05:39:58.544Z,12.25
2023-02-06T05:42:26.270Z,5.20
2023-02-06T05:44:52.832Z,5.15
2023-02-06T05:47:19.400Z,5.18
2023-02-06T05:49:45.880Z,5.80
2023-02-06T05:52:12.475Z,5.57
2023-02-06T05:54:40.425Z,4.05
2023-02-06T05:57:07.065Z,5.47
2023-02-06T05:59:33.854Z,5.32
2023-02-06T06:02:00.447Z,4.40
2023-02-06T06:04:27.121Z,4.97
2023-02-06T06:06:53.700Z,4.85
2023-02-06T06:09:20.455Z,4.95
2023-02-06T06:11:48.295Z,4.60
2023-02-06T06:14:14.962Z,5.55
2023-02-06T06:16:41.482Z,5.68
2023-02-06T06:19:08.365Z,9.57
2023-02-06T06:21:34.984Z,21.42
2023-02-06T06:24:02.352Z,17.27
2023-02-06T06:26:28.920Z,24.42
2023-02-06T06:28:57.421Z,20.25
2023-02-06T06:31:24.046Z,10.35
2023-02-06T06:33:50.642Z,14.85
2023-02-06T06:36:17.107Z,12.27
2023-02-06T06:38:43.609Z,6.90
2023-02-06T06:41:10.164Z,12.88
2023-02-06T06:43:36.750Z,10.95
2023-02-06T06:46:04.973Z,11.23
2023-02-06T06:48:32.048Z,10.57
2023-02-06T06:50:58.554Z,7.43
2023-02-06T06:53:25.101Z,9.40
2023-02-06T06:55:51.731Z,16.42
2023-02-06T06:58:18.364Z,6.85
2023-02-06T07:00:45.068Z,9.40
2023-02-06T07:03:12.905Z,8.57
2023-02-06T07:05:39.505Z,5.55
2023-02-06T07:08:06.077Z,11.65
2023-02-06T07:10:32.593Z,7.82
2023-02-06T07:12:59.119Z,6.35
2023-02-06T07:15:25.609Z,9.82
2023-02-06T07:17:52.613Z,7.88
2023-02-06T07:20:20.564Z,8.07
2023-02-06T07:22:47.104Z,9.10
2023-02-06T07:25:13.674Z,5.35
2023-02-06T07:27:40.319Z,9.38
2023-02-06T07:30:07.779Z,9.07
2023-02-06T07:32:35.036Z,6.95
2023-02-06T07:35:01.568Z,6.45
2023-02-06T07:37:29.390Z,6.20
2023-02-06T07:39:55.925Z,6.07
2023-02-06T07:42:22.484Z,7.20
2023-02-06T07:44:49.026Z,6.70
2023-02-06T07:47:15.535Z,5.53
2023-02-06T07:49:42.201Z,5.50
2023-02-06T07:52:08.817Z,5.65
2023-02-06T07:54:37.610Z,4.28
2023-02-06T07:57:04.247Z,7.63
2023-02-06T07:59:30.841Z,12.68
2023-02-06T08:01:57.564Z,18.80
2023-02-06T08:04:24.091Z,13.90
2023-02-06T08:06:50.757Z,16.17
2023-02-06T08:09:17.261Z,17.25
2023-02-06T08:11:45.503Z,11.52
2023-02-06T08:14:12.575Z,15.25
2023-02-06T08:16:39.257Z,17.58
2023-02-06T08:19:06.253Z,13.15
2023-02-06T08:21:33.435Z,16.20
2023-02-06T08:24:00.874Z,15.40
2023-02-06T08:26:28.979Z,17.35
2023-02-06T08:28:58.873Z,10.23
2023-02-06T08:31:28.068Z,9.40
2023-02-06T08:33:55.828Z,14.75
2023-02-06T08:36:23.937Z,10.73
2023-02-06T08:38:51.450Z,8.65
2023-02-06T08:41:19.951Z,10.43
2023-02-06T08:43:47.201Z,13.88
2023-02-06T08:46:17.044Z,13.13
2023-02-06T08:48:43.933Z,11.75
2023-02-06T08:51:11.127Z,9.50
2023-02-06T08:53:39.021Z,19.38
2023-02-06T08:56:07.783Z,20.98
2023-02-06T08:58:35.420Z,14.07
2023-02-06T09:01:06.386Z,21.70
2023-02-06T09:03:34.752Z,13.77
2023-02-06T09:06:09.891Z,13.80
2023-02-06T09:08:37.860Z,10.13
2023-02-06T09:11:06.530Z,17.65
2023-02-06T09:13:33.581Z,15.35
2023-02-06T09:16:00.212Z,18.48
2023-02-06T09:18:26.812Z,20.88
2023-02-06T09:21:06.793Z,24.13
2023-02-06T09:23:33.459Z,38.20
2023-02-06T09:26:00.197Z,23.98
2023-02-06T09:28:26.863Z,28.40
2023-02-06T09:30:54.099Z,29.52
2023-02-06T09:33:20.790Z,27.33
2023-02-06T09:35:47.869Z,25.67
2023-02-06T09:38:15.969Z,19.52
2023-02-06T09:40:42.659Z,24.35
2023-02-06T09:43:13.790Z,20.20
2023-02-06T09:45:41.626Z,19.13
2023-02-06T09:48:17.642Z,17.13
2023-02-06T09:50:53.087Z,14.60
2023-02-06T09:53:25.875Z,13.45
2023-02-06T09:55:58.085Z,13.40
2023-02-06T09:58:35.124Z,12.57
2023-02-06T10:01:07.708Z,14.27
2023-02-06T10:03:45.207Z,15.23
2023-02-06T10:06:19.124Z,10.48
2023-02-06T10:11:22.592Z,15.98
2023-02-06T10:13:54.133Z,9.05
2023-02-06T10:16:32.656Z,6.78
2023-02-06T10:19:04.086Z,10.10
2023-02-06T10:21:35.702Z,9.63
2023-02-06T10:24:11.277Z,12.38
2023-02-06T10:26:39.781Z,14.00
2023-02-06T10:29:15.924Z,8.38
2023-02-06T10:31:58.611Z,11.25
2023-02-06T10:34:39.431Z,8.85
2023-02-06T10:37:26.155Z,11.23
2023-02-06T10:40:10.166Z,8.38
2023-02-06T10:42:46.633Z,11.70
2023-02-06T10:45:23.522Z,6.70
2023-02-06T10:47:55.688Z,6.05
2023-02-06T10:50:28.367Z,5.90
2023-02-06T10:52:58.098Z,7.80
2023-02-06T10:55:28.818Z,8.43
2023-02-06T10:58:03.906Z,6.57
2023-02-06T11:00:32.079Z,7.60
2023-02-06T11:03:07.468Z,7.75
2023-02-06T11:05:36.006Z,7.75
2023-02-06T11:08:10.985Z,9.23
2023-02-06T11:10:39.876Z,7.40
2023-02-06T11:13:14.568Z,7.85
2023-02-06T11:15:55.982Z,9.50
2023-02-06T11:18:29.405Z,8.90
2023-02-06T11:20:56.569Z,6.18
2023-02-06T11:23:24.818Z,6.60
2023-02-06T11:26:02.837Z,4.93
2023-02-06T11:28:30.518Z,10.43
2023-02-06T11:30:59.394Z,5.13
2023-02-06T11:33:35.806Z,7.50
2023-02-06T11:36:02.839Z,8.07
2023-02-06T11:38:31.323Z,6.07
2023-02-06T11:41:00.819Z,6.07
2023-02-06T11:43:30.185Z,10.00
2023-02-06T11:46:12.725Z,10.02
2023-02-06T11:48:41.636Z,3.83
2023-02-06T11:51:09.903Z,5.38
2023-02-06T11:53:37.624Z,12.07
2023-02-06T11:56:16.207Z,8.07
2023-02-06T11:58:43.636Z,10.68
2023-02-06T12:01:19.150Z,11.05
2023-02-06T12:03:53.804Z,8.10
2023-02-06T12:06:27.097Z,6.88
2023-02-06T12:08:56.129Z,14.02
2023-02-06T12:11:28.326Z,10.98
2023-02-06T12:13:59.287Z,15.35
2023-02-06T12:16:27.592Z,8.65
2023-02-06T12:18:57.649Z,16.88
2023-02-06T12:21:29.845Z,9.70
2023-02-06T12:24:00.905Z,6.05
2023-02-06T12:26:30.450Z,10.48
2023-02-06T12:29:02.050Z,9.80
2023-02-06T12:31:39.060Z,19.15
2023-02-06T12:34:13.856Z,16.65
2023-02-06T12:36:49.323Z,13.77
2023-02-06T12:39:19.750Z,21.67
2023-02-06T12:42:07.722Z,14.75
2023-02-06T12:44:39.367Z,11.50
2023-02-06T12:47:13.047Z,12.20
2023-02-06T12:49:51.012Z,20.90
2023-02-06T12:52:24.703Z,12.15
2023-02-06T12:54:58.109Z,11.85
2023-02-06T12:57:29.531Z,7.75
2023-02-06T13:00:18.678Z,6.10
2023-02-06T13:03:03.749Z,12.63
2023-02-06T13:05:35.420Z,12.15
2023-02-06T13:08:07.538Z,13.82
2023-02-06T13:10:36.175Z,10.77
2023-02-06T13:13:04.754Z,14.63
2023-02-06T13:15:35.790Z,11.32
2023-02-06T13:18:02.802Z,6.50
2023-02-06T13:20:33.235Z,5.85
2023-02-06T13:23:22.209Z,10.00
2023-02-06T13:25:49.067Z,11.13
2023-02-06T13:28:35.480Z,12.50
2023-02-06T13:31:05.170Z,11.48
2023-02-06T13:33:40.459Z,12.32
2023-02-06T13:36:15.594Z,22.40
2023-02-06T13:38:42.534Z,18.58
2023-02-06T13:41:27.397Z,12.30
2023-02-06T13:43:57.992Z,14.88
2023-02-06T13:46:36.239Z,22.10
2023-02-06T13:49:20.153Z,10.20
2023-02-06T13:51:49.765Z,13.93
2023-02-06T13:54:32.783Z,11.63
2023-02-06T13:57:20.617Z,12.20
2023-02-06T13:59:50.835Z,7.47
2023-02-06T14:02:24.372Z,17.67
2023-02-06T14:04:51.548Z,8.77
2023-02-06T14:07:43.120Z,11.50
2023-02-06T14:10:29.880Z,8.02
2023-02-06T14:13:19.456Z,10.05
2023-02-06T14:15:52.507Z,11.40
2023-02-06T14:18:36.508Z,10.48
2023-02-06T14:21:15.822Z,5.68
2023-02-06T14:24:03.633Z,11.25
2023-02-06T14:26:43.416Z,14.30
2023-02-06T14:29:20.898Z,19.75
2023-02-06T14:32:05.624Z,19.40
2023-02-06T14:34:46.090Z,23.17
2023-02-06T14:37:38.933Z,25.05
2023-02-06T14:40:13.529Z,21.70
2023-02-06T14:42:42.950Z,24.48
2023-02-06T14:45:31.953Z,36.38
2023-02-06T14:48:02.917Z,33.53
2023-02-06T14:50:34.120Z,27.02
2023-02-06T14:53:04.572Z,21.63
2023-02-06T14:55:35.388Z,14.38
2023-02-06T14:58:03.423Z,18.92
2023-02-06T15:00:31.812Z,8.38
2023-02-06T15:03:08.795Z,15.95
2023-02-06T15:05:37.624Z,17.25
2023-02-06T15:08:05.763Z,15.57
2023-02-06T15:10:36.764Z,16.63
2023-02-06T15:13:04.815Z,20.65
2023-02-06T15:15:33.782Z,19.67
2023-02-06T15:18:03.492Z,11.25
2023-02-06T15:20:36.628Z,14.88
2023-02-06T15:23:17.727Z,12.68
2023-02-06T15:25:55.702Z,7.80
2023-02-06T15:28:27.261Z,14.30
2023-02-06T15:30:54.979Z,14.68
2023-02-06T15:33:25.161Z,8.75
2023-02-06T15:35:55.210Z,11.73
2023-02-06T15:38:25.195Z,13.32
2023-02-06T15:40:55.280Z,27.60
2023-02-06T15:43:24.861Z,29.05
2023-02-06T15:45:53.411Z,14.80
2023-02-06T15:48:25.696Z,17.45
2023-02-06T15:50:58.888Z,22.90
2023-02-06T15:53:34.042Z,19.25
2023-02-06T15:56:03.951Z,12.95
2023-02-06T15:58:32.937Z,14.68
2023-02-06T16:01:00.919Z,17.00
2023-02-06T16:03:30.020Z,13.80
2023-02-06T16:05:57.280Z,16.13
2023-02-06T16:08:28.432Z,11.52
2023-02-06T16:10:59.781Z,16.33
2023-02-06T16:13:28.804Z,11.88
2023-02-06T16:16:06.552Z,16.80
2023-02-06T16:18:35.590Z,5.47
2023-02-06T16:21:13.517Z,9.32
2023-02-06T16:23:46.318Z,13.73
2023-02-06T16:26:17.970Z,18.27
2023-02-06T16:28:53.856Z,10.55
2023-02-06T16:31:20.647Z,8.40
2023-02-06T16:33:49.630Z,8.40
2023-02-06T16:36:18.567Z,13.93
2023-02-06T16:38:54.050Z,7.13
2023-02-06T16:41:34.483Z,24.42
2023-02-06T16:44:02.647Z,7.85
2023-02-06T16:46:29.936Z,7.22
2023-02-06T16:48:59.006Z,11.13
2023-02-06T16:51:28.056Z,7.88
2023-02-06T16:53:55.105Z,10.30
2023-02-06T16:56:22.053Z,8.43
2023-02-06T16:58:50.339Z,7.63
2023-02-06T17:01:20.168Z,6.05
2023-02-06T17:03:47.244Z,7.35
2023-02-06T17:06:18.691Z,7.40
2023-02-06T17:08:45.666Z,4.75
2023-02-06T17:11:12.500Z,5.97
2023-02-06T17:13:39.492Z,12.40
2023-02-06T17:16:12.191Z,8.15
2023-02-06T17:18:38.979Z,5.10
2023-02-06T17:21:05.806Z,6.75
2023-02-06T17:23:32.439Z,6.18
2023-02-06T17:25:59.284Z,7.88
2023-02-06T17:28:26.078Z,4.32
2023-02-06T17:30:52.890Z,6.05
2023-02-06T17:33:20.833Z,5.78
2023-02-06T17:35:48.560Z,3.50
2023-02-06T17:38:15.239Z,5.22
2023-02-06T17:40:42.093Z,5.00
2023-02-06T17:43:09.126Z,6.00
2023-02-06T17:45:38.159Z,6.38
2023-02-06T17:48:05.569Z,4.88
2023-02-06T17:50:34.150Z,6.85
2023-02-06T17:53:00.651Z,3.95
2023-02-06T17:55:28.142Z,4.22
2023-02-06T17:57:55.020Z,6.35
2023-02-06T18:00:23.247Z,6.63
2023-02-06T18:02:50.470Z,4.75
2023-02-06T18:05:17.154Z,7.00
2023-02-06T18:07:45.215Z,5.15
2023-02-06T18:10:11.949Z,4.90
2023-02-06T18:12:39.029Z,4.68
2023-02-06T18:15:06.083Z,4.40
2023-02-06T18:17:34.104Z,5.18
2023-02-06T18:20:00.912Z,6.57
2023-02-06T18:22:27.478Z,8.20
2023-02-06T18:24:55.438Z,4.78
2023-02-06T18:27:21.990Z,5.25
2023-02-06T18:29:50.694Z,4.95
2023-02-06T18:32:18.133Z,5.80
2023-02-06T18:34:45.124Z,5.63
2023-02-06T18:37:12.067Z,4.03
2023-02-06T18:39:38.759Z,5.50
2023-02-06T18:42:06.851Z,5.65
2023-02-06T18:44:33.426Z,6.40
2023-02-06T18:47:00.149Z,5.20
2023-02-06T18:49:26.640Z,4.40
2023-02-06T18:51:53.137Z,4.15
2023-02-06T18:54:19.693Z,5.68
2023-02-06T18:56:47.176Z,5.28
2023-02-06T18:59:16.193Z,4.43
2023-02-06T19:01:42.741Z,5.00
2023-02-06T19:04:09.318Z,7.05
2023-02-06T19:06:35.995Z,6.13
2023-02-06T19:09:04.722Z,7.40
2023-02-06T19:11:31.310Z,6.00
2023-02-06T19:13:57.856Z,6.00
2023-02-06T19:16:25.801Z,3.90
2023-02-06T19:18:52.480Z,4.90
2023-02-06T19:21:21.121Z,5.28
2023-02-06T19:23:54.012Z,5.78
2023-02-06T19:26:20.842Z,6.00
2023-02-06T19:28:47.348Z,4.28
2023-02-06T19:31:14.438Z,4.22
2023-02-06T19:33:42.277Z,5.03
2023-02-06T19:36:11.937Z,5.88
2023-02-06T19:38:38.969Z,5.70
2023-02-06T19:41:06.597Z,5.35
2023-02-06T19:43:34.081Z,5.18
2023-02-06T19:46:02.646Z,5.32
2023-02-06T19:48:29.196Z,6.03
2023-02-06T19:51:02.364Z,6.40
2023-02-06T19:53:29.412Z,4.07
2023-02-06T19:55:55.927Z,4.07
2023-02-06T19:58:22.433Z,4.20
2023-02-06T20:00:49.089Z,4.65
2023-02-06T20:03:15.601Z,3.65
2023-02-06T20:05:42.118Z,4.70
2023-02-06T20:08:09.936Z,5.05
2023-02-06T20:10:37.090Z,6.57
2023-02-06T20:13:03.768Z,6.82
2023-02-06T20:15:30.386Z,4.50
2023-02-06T20:17:56.910Z,4.15
2023-02-06T20:20:23.842Z,3.50
2023-02-06T20:22:50.503Z,3.10
2023-02-06T20:25:18.491Z,4.15
2023-02-06T20:27:45.025Z,4.03
2023-02-06T20:30:12.457Z,4.38
2023-02-06T20:32:39.386Z,5.20
2023-02-06T20:35:06.521Z,4.68
2023-02-06T20:37:33.179Z,4.68
2023-02-06T20:39:59.705Z,4.45
2023-02-06T20:42:27.562Z,5.70
2023-02-06T20:44:54.797Z,4.38
2023-02-06T20:47:21.433Z,5.18
2023-02-06T20:49:48.001Z,5.78
2023-02-06T20:52:15.216Z,4.55
2023-02-06T20:54:41.982Z,4.18
2023-02-06T20:57:08.534Z,4.50
2023-02-06T20:59:36.992Z,7.07
2023-02-06T21:02:03.691Z,7.22
2023-02-06T21:04:31.656Z,3.90
2023-02-06T21:06:58.195Z,5.18
2023-02-06T21:09:24.857Z,7.05
2023-02-06T21:11:51.512Z,6.57
2023-02-06T21:14:19.509Z,8.88
2023-02-06T21:16:47.783Z,4.70
2023-02-06T21:19:16.573Z,5.50
2023-02-06T21:21:45.669Z,3.80
2023-02-06T21:24:13.245Z,4.65
2023-02-06T21:26:39.878Z,6.25
2023-02-06T21:29:06.480Z,6.63
2023-02-06T21:31:37.854Z,8.45
2023-02-06T21:34:08.461Z,3.38
2023-02-06T21:36:37.445Z,6.28
2023-02-06T21:39:04.549Z,5.15
2023-02-06T21:41:32.103Z,5.18
2023-02-06T21:43:58.661Z,5.20
2023-02-06T21:46:25.169Z,5.32
2023-02-06T21:48:52.596Z,5.22
2023-02-06T21:51:21.097Z,6.57
2023-02-06T21:53:47.722Z,4.25
2023-02-06T21:56:16.304Z,6.13
2023-02-06T21:58:43.401Z,3.88
2023-02-06T22:01:14.191Z,4.78
2023-02-06T22:03:40.735Z,5.43
2023-02-06T22:06:07.407Z,6.22
2023-02-06T22:08:35.997Z,4.90
2023-02-06T22:11:09.622Z,5.55
2023-02-06T22:13:36.318Z,5.30
2023-02-06T22:16:03.182Z,4.28
2023-02-06T22:18:29.895Z,4.28
2023-02-06T22:21:03.346Z,4.13
2023-02-06T22:23:30.199Z,4.78
2023-02-06T22:25:58.168Z,5.43
2023-02-06T22:28:24.833Z,3.58
2023-02-06T22:30:51.566Z,4.20
2023-02-06T22:33:18.336Z,6.30
2023-02-06T22:35:45.048Z,5.65
2023-02-06T22:38:11.688Z,4.97
2023-02-06T22:40:38.198Z,4.38
2023-02-06T22:43:06.022Z,4.65
2023-02-06T22:45:34.706Z,4.35
2023-02-06T22:48:01.230Z,5.18
2023-02-06T22:50:27.788Z,5.45
2023-02-06T22:52:54.322Z,4.18
2023-02-06T22:55:20.893Z,5.00
2023-02-06T22:57:47.530Z,6.72
2023-02-06T23:00:16.103Z,5.75
2023-02-06T23:02:42.746Z,5.10
2023-02-06T23:05:09.384Z,5.63
2023-02-06T23:07:36.268Z,4.95
2023-02-06T23:10:02.832Z,5.28
2023-02-06T23:12:29.322Z,4.18
2023-02-06T23:14:55.898Z,4.05
2023-02-06T23:17:23.697Z,3.75
2023-02-06T23:19:50.458Z,4.15
2023-02-06T23:22:16.999Z,6.13
2023-02-06T23:24:43.700Z,5.20
2023-02-06T23:27:10.302Z,5.85
2023-02-06T23:29:36.879Z,5.65
2023-02-06T23:32:03.511Z,8.00
2023-02-06T23:34:31.442Z,5.88
2023-02-06T23:36:57.942Z,5.72
2023-02-06T23:39:24.470Z,6.60
2023-02-06T23:41:51.019Z,5.10
2023-02-06T23:44:18.090Z,4.15
2023-02-06T23:46:44.785Z,4.13
2023-02-06T23:49:11.632Z,3.70
2023-02-06T23:51:39.462Z,4.95
2023-02-06T23:54:07.174Z,5.35
2023-02-06T23:56:34.496Z,6.70
2023-02-06T23:59:02.481Z,6.65
